sensor_id;sensor_type;location;lat;lon;timestamp;temperature;humidity
12769;DHT22;6448;48.916;8.990;2023-04-03T00:00:10;12.30;45.20
12769;DHT22;6448;48.916;8.990;2023-04-03T00:01:11;12.40;45.30
12769;DHT22;6448;48.916;8.990;2023-04-03T00:02:13;12.40;45.20
12769;DHT22;6448;48.916;8.990;2023-04-03T00:03:13;12.40;45.10
12769;DHT22;6448;48.916;8.990;2023-04-03T00:04:15;12.40;45.10
12769;DHT22;6448;48.916;8.990;2023-04-03T00:05:16;12.40;45.10
12769;DHT22;6448;48.916;8.990;2023-04-03T00:06:19;12.30;45.10
12769;DHT22;6448;48.916;8.990;2023-04-03T00:07:20;12.40;45.20
12769;DHT22;6448;48.916;8.990;2023-04-03T00:08:22;12.40;45.30
12769;DHT22;6448;48.916;8.990;2023-04-03T00:09:22;12.30;45.20
12769;DHT22;6448;48.916;8.990;2023-04-03T00:10:24;12.40;45.30
12769;DHT22;6448;48.916;8.990;2023-04-03T00:11:25;12.30;45.30
12769;DHT22;6448;48.916;8.990;2023-04-03T00:12:27;12.40;45.30
12769;DHT22;6448;48.916;8.990;2023-04-03T00:13:28;12.30;45.30
12769;DHT22;6448;48.916;8.990;2023-04-03T00:14:29;12.40;45.30
12769;DHT22;6448;48.916;8.990;2023-04-03T00:15:30;12.40;45.30
12769;DHT22;6448;48.916;8.990;2023-04-03T00:16:32;12.40;45.40
12769;DHT22;6448;48.916;8.990;2023-04-03T00:17:33;12.40;45.40
12769;DHT22;6448;48.916;8.990;2023-04-03T00:18:36;12.40;45.40
12769;DHT22;6448;48.916;8.990;2023-04-03T00:19:37;12.40;45.30
12769;DHT22;6448;48.916;8.990;2023-04-03T00:20:39;12.40;45.30
12769;DHT22;6448;48.916;8.990;2023-04-03T00:21:41;12.40;45.40
12769;DHT22;6448;48.916;8.990;2023-04-03T00:22:43;12.40;45.40
12769;DHT22;6448;48.916;8.990;2023-04-03T00:23:44;12.40;45.30
12769;DHT22;6448;48.916;8.990;2023-04-03T00:24:46;12.40;45.40
12769;DHT22;6448;48.916;8.990;2023-04-03T00:25:46;12.60;45.50
12769;DHT22;6448;48.916;8.990;2023-04-03T00:26:48;12.40;45.40
12769;DHT22;6448;48.916;8.990;2023-04-03T00:27:49;12.40;45.40
12769;DHT22;6448;48.916;8.990;2023-04-03T00:28:51;12.40;45.40
12769;DHT22;6448;48.916;8.990;2023-04-03T00:29:52;12.40;45.40
12769;DHT22;6448;48.916;8.990;2023-04-03T00:30:54;12.40;45.50
12769;DHT22;6448;48.916;8.990;2023-04-03T00:31:54;12.40;45.50
12769;DHT22;6448;48.916;8.990;2023-04-03T00:32:56;12.40;45.50
12769;DHT22;6448;48.916;8.990;2023-04-03T00:33:58;12.30;45.50
12769;DHT22;6448;48.916;8.990;2023-04-03T00:35:00;12.40;45.50
12769;DHT22;6448;48.916;8.990;2023-04-03T00:36:06;12.40;45.50
12769;DHT22;6448;48.916;8.990;2023-04-03T00:37:09;12.30;45.50
12769;DHT22;6448;48.916;8.990;2023-04-03T00:38:10;12.30;45.50
12769;DHT22;6448;48.916;8.990;2023-04-03T00:39:11;12.30;45.50
12769;DHT22;6448;48.916;8.990;2023-04-03T00:40:14;12.40;45.50
12769;DHT22;6448;48.916;8.990;2023-04-03T00:41:16;12.30;45.50
12769;DHT22;6448;48.916;8.990;2023-04-03T00:42:17;12.30;45.60
12769;DHT22;6448;48.916;8.990;2023-04-03T00:43:21;12.40;45.60
12769;DHT22;6448;48.916;8.990;2023-04-03T00:46:02;12.30;46.00
12769;DHT22;6448;48.916;8.990;2023-04-03T00:47:05;12.30;45.60
12769;DHT22;6448;48.916;8.990;2023-04-03T00:48:12;12.30;46.20
12769;DHT22;6448;48.916;8.990;2023-04-03T00:49:14;12.30;45.60
12769;DHT22;6448;48.916;8.990;2023-04-03T00:50:16;12.30;45.60
12769;DHT22;6448;48.916;8.990;2023-04-03T00:51:19;12.40;45.70
12769;DHT22;6448;48.916;8.990;2023-04-03T00:52:28;12.40;45.70
12769;DHT22;6448;48.916;8.990;2023-04-03T00:53:32;12.30;45.70
12769;DHT22;6448;48.916;8.990;2023-04-03T00:54:36;12.30;45.60
12769;DHT22;6448;48.916;8.990;2023-04-03T00:55:38;12.30;45.70
12769;DHT22;6448;48.916;8.990;2023-04-03T00:56:40;12.30;45.70
12769;DHT22;6448;48.916;8.990;2023-04-03T00:57:42;12.30;45.60
12769;DHT22;6448;48.916;8.990;2023-04-03T00:58:46;12.30;45.70
12769;DHT22;6448;48.916;8.990;2023-04-03T00:59:53;12.30;45.70
12769;DHT22;6448;48.916;8.990;2023-04-03T01:00:58;12.30;45.60
12769;DHT22;6448;48.916;8.990;2023-04-03T01:02:00;12.30;45.60
12769;DHT22;6448;48.916;8.990;2023-04-03T01:03:01;12.30;45.60
12769;DHT22;6448;48.916;8.990;2023-04-03T01:04:05;12.30;45.60
12769;DHT22;6448;48.916;8.990;2023-04-03T01:05:07;12.30;45.70
12769;DHT22;6448;48.916;8.990;2023-04-03T01:06:10;12.30;45.70
12769;DHT22;6448;48.916;8.990;2023-04-03T01:07:13;12.30;45.80
12769;DHT22;6448;48.916;8.990;2023-04-03T01:08:18;12.30;45.80
12769;DHT22;6448;48.916;8.990;2023-04-03T01:09:19;12.30;45.80
12769;DHT22;6448;48.916;8.990;2023-04-03T01:10:21;12.30;45.80
12769;DHT22;6448;48.916;8.990;2023-04-03T01:11:22;12.30;45.80
12769;DHT22;6448;48.916;8.990;2023-04-03T01:12:26;12.30;45.80
12769;DHT22;6448;48.916;8.990;2023-04-03T01:13:30;12.30;45.80
12769;DHT22;6448;48.916;8.990;2023-04-03T01:14:32;12.30;45.80
12769;DHT22;6448;48.916;8.990;2023-04-03T01:15:33;12.30;45.80
12769;DHT22;6448;48.916;8.990;2023-04-03T01:16:35;12.20;45.80
12769;DHT22;6448;48.916;8.990;2023-04-03T01:17:38;12.20;45.80
12769;DHT22;6448;48.916;8.990;2023-04-03T01:18:40;12.20;45.80
12769;DHT22;6448;48.916;8.990;2023-04-03T01:19:45;12.20;45.80
12769;DHT22;6448;48.916;8.990;2023-04-03T01:22:32;12.30;45.80
12769;DHT22;6448;48.916;8.990;2023-04-03T01:23:51;12.30;45.80
12769;DHT22;6448;48.916;8.990;2023-04-03T01:24:56;12.20;45.80
12769;DHT22;6448;48.916;8.990;2023-04-03T01:25:58;12.20;45.90
12769;DHT22;6448;48.916;8.990;2023-04-03T01:27:01;12.20;46.00
12769;DHT22;6448;48.916;8.990;2023-04-03T01:28:05;12.20;46.10
12769;DHT22;6448;48.916;8.990;2023-04-03T01:29:06;12.20;46.10
12769;DHT22;6448;48.916;8.990;2023-04-03T01:30:09;12.20;46.20
12769;DHT22;6448;48.916;8.990;2023-04-03T01:31:15;12.20;46.10
12769;DHT22;6448;48.916;8.990;2023-04-03T01:32:22;12.20;46.10
12769;DHT22;6448;48.916;8.990;2023-04-03T01:33:24;12.20;46.20
12769;DHT22;6448;48.916;8.990;2023-04-03T01:34:27;12.20;46.20
12769;DHT22;6448;48.916;8.990;2023-04-03T01:35:29;12.20;46.20
12769;DHT22;6448;48.916;8.990;2023-04-03T01:36:31;12.10;46.10
12769;DHT22;6448;48.916;8.990;2023-04-03T01:37:33;12.10;46.10
12769;DHT22;6448;48.916;8.990;2023-04-03T01:38:34;12.10;46.10
12769;DHT22;6448;48.916;8.990;2023-04-03T01:39:36;12.20;46.20
12769;DHT22;6448;48.916;8.990;2023-04-03T01:40:36;12.10;46.30
12769;DHT22;6448;48.916;8.990;2023-04-03T01:41:38;12.30;46.40
12769;DHT22;6448;48.916;8.990;2023-04-03T01:42:48;12.10;46.30
12769;DHT22;6448;48.916;8.990;2023-04-03T01:43:50;12.10;46.40
12769;DHT22;6448;48.916;8.990;2023-04-03T01:44:51;12.10;46.40
12769;DHT22;6448;48.916;8.990;2023-04-03T01:45:52;12.10;46.50
12769;DHT22;6448;48.916;8.990;2023-04-03T01:46:55;12.10;46.50
12769;DHT22;6448;48.916;8.990;2023-04-03T01:47:59;12.10;46.50
12769;DHT22;6448;48.916;8.990;2023-04-03T01:49:01;12.20;46.60
12769;DHT22;6448;48.916;8.990;2023-04-03T01:50:03;12.00;46.50
12769;DHT22;6448;48.916;8.990;2023-04-03T01:51:07;12.00;46.60
12769;DHT22;6448;48.916;8.990;2023-04-03T01:52:08;12.10;46.60
12769;DHT22;6448;48.916;8.990;2023-04-03T01:53:09;12.00;46.70
12769;DHT22;6448;48.916;8.990;2023-04-03T01:54:11;12.10;46.70
12769;DHT22;6448;48.916;8.990;2023-04-03T01:55:12;12.00;46.70
12769;DHT22;6448;48.916;8.990;2023-04-03T01:56:14;12.10;46.70
12769;DHT22;6448;48.916;8.990;2023-04-03T01:57:15;12.00;46.80
12769;DHT22;6448;48.916;8.990;2023-04-03T01:58:16;12.00;46.80
12769;DHT22;6448;48.916;8.990;2023-04-03T01:59:17;12.00;46.90
12769;DHT22;6448;48.916;8.990;2023-04-03T02:00:20;12.00;46.90
12769;DHT22;6448;48.916;8.990;2023-04-03T02:01:21;12.00;46.90
12769;DHT22;6448;48.916;8.990;2023-04-03T02:02:22;12.00;46.90
12769;DHT22;6448;48.916;8.990;2023-04-03T02:03:25;12.00;46.90
12769;DHT22;6448;48.916;8.990;2023-04-03T02:04:26;12.00;46.90
12769;DHT22;6448;48.916;8.990;2023-04-03T02:05:28;12.00;47.00
12769;DHT22;6448;48.916;8.990;2023-04-03T02:06:30;12.00;47.00
12769;DHT22;6448;48.916;8.990;2023-04-03T02:07:30;11.90;46.90
12769;DHT22;6448;48.916;8.990;2023-04-03T02:08:32;11.90;47.00
12769;DHT22;6448;48.916;8.990;2023-04-03T02:09:33;11.90;47.00
12769;DHT22;6448;48.916;8.990;2023-04-03T02:10:36;11.90;47.00
12769;DHT22;6448;48.916;8.990;2023-04-03T02:11:36;12.10;47.10
12769;DHT22;6448;48.916;8.990;2023-04-03T02:12:38;11.90;47.30
12769;DHT22;6448;48.916;8.990;2023-04-03T02:13:39;11.90;47.10
12769;DHT22;6448;48.916;8.990;2023-04-03T02:14:41;12.10;47.10
12769;DHT22;6448;48.916;8.990;2023-04-03T02:15:46;11.90;47.00
12769;DHT22;6448;48.916;8.990;2023-04-03T02:16:51;11.90;47.00
12769;DHT22;6448;48.916;8.990;2023-04-03T02:17:51;11.90;47.00
12769;DHT22;6448;48.916;8.990;2023-04-03T02:18:55;11.90;47.00
12769;DHT22;6448;48.916;8.990;2023-04-03T02:19:55;11.90;46.90
12769;DHT22;6448;48.916;8.990;2023-04-03T02:20:58;11.90;46.90
12769;DHT22;6448;48.916;8.990;2023-04-03T02:21:58;11.90;46.90
12769;DHT22;6448;48.916;8.990;2023-04-03T02:23:00;11.90;46.90
12769;DHT22;6448;48.916;8.990;2023-04-03T02:24:01;11.90;46.90
12769;DHT22;6448;48.916;8.990;2023-04-03T02:25:04;11.90;46.80
12769;DHT22;6448;48.916;8.990;2023-04-03T02:26:07;11.90;46.80
12769;DHT22;6448;48.916;8.990;2023-04-03T02:27:09;11.90;46.70
12769;DHT22;6448;48.916;8.990;2023-04-03T02:28:10;11.80;46.70
12769;DHT22;6448;48.916;8.990;2023-04-03T02:29:16;11.80;46.70
12769;DHT22;6448;48.916;8.990;2023-04-03T02:30:16;11.80;46.70
12769;DHT22;6448;48.916;8.990;2023-04-03T02:31:18;11.90;46.70
12769;DHT22;6448;48.916;8.990;2023-04-03T02:32:21;11.80;46.70
12769;DHT22;6448;48.916;8.990;2023-04-03T02:33:22;11.80;46.70
12769;DHT22;6448;48.916;8.990;2023-04-03T02:34:26;11.80;46.70
12769;DHT22;6448;48.916;8.990;2023-04-03T02:35:28;11.80;46.70
12769;DHT22;6448;48.916;8.990;2023-04-03T02:36:30;11.80;46.70
12769;DHT22;6448;48.916;8.990;2023-04-03T02:37:34;11.80;46.60
12769;DHT22;6448;48.916;8.990;2023-04-03T02:38:35;11.80;46.50
12769;DHT22;6448;48.916;8.990;2023-04-03T02:39:37;11.80;46.50
12769;DHT22;6448;48.916;8.990;2023-04-03T02:40:38;11.80;46.50
12769;DHT22;6448;48.916;8.990;2023-04-03T02:41:40;11.80;46.50
12769;DHT22;6448;48.916;8.990;2023-04-03T02:42:46;11.80;46.50
12769;DHT22;6448;48.916;8.990;2023-04-03T02:43:48;11.80;46.60
12769;DHT22;6448;48.916;8.990;2023-04-03T02:44:50;11.90;46.60
12769;DHT22;6448;48.916;8.990;2023-04-03T02:45:51;11.80;46.50
12769;DHT22;6448;48.916;8.990;2023-04-03T02:46:52;11.80;46.60
12769;DHT22;6448;48.916;8.990;2023-04-03T02:47:54;11.80;46.60
12769;DHT22;6448;48.916;8.990;2023-04-03T02:48:55;11.80;46.60
12769;DHT22;6448;48.916;8.990;2023-04-03T02:49:58;11.80;46.60
12769;DHT22;6448;48.916;8.990;2023-04-03T02:50:59;11.80;46.50
12769;DHT22;6448;48.916;8.990;2023-04-03T02:52:01;11.80;46.50
12769;DHT22;6448;48.916;8.990;2023-04-03T02:53:02;11.80;46.60
12769;DHT22;6448;48.916;8.990;2023-04-03T02:54:04;11.80;46.50
12769;DHT22;6448;48.916;8.990;2023-04-03T02:55:08;11.80;46.50
12769;DHT22;6448;48.916;8.990;2023-04-03T02:56:10;11.80;46.40
12769;DHT22;6448;48.916;8.990;2023-04-03T02:57:11;11.80;46.40
12769;DHT22;6448;48.916;8.990;2023-04-03T02:58:12;11.80;46.40
12769;DHT22;6448;48.916;8.990;2023-04-03T02:59:13;11.70;46.20
12769;DHT22;6448;48.916;8.990;2023-04-03T03:00:16;11.70;46.20
12769;DHT22;6448;48.916;8.990;2023-04-03T03:01:17;11.70;46.20
12769;DHT22;6448;48.916;8.990;2023-04-03T03:02:19;11.70;46.20
12769;DHT22;6448;48.916;8.990;2023-04-03T03:03:20;11.70;46.10
12769;DHT22;6448;48.916;8.990;2023-04-03T03:04:21;11.70;46.10
12769;DHT22;6448;48.916;8.990;2023-04-03T03:05:24;11.70;46.10
12769;DHT22;6448;48.916;8.990;2023-04-03T03:06:26;11.70;46.00
12769;DHT22;6448;48.916;8.990;2023-04-03T03:07:27;11.80;46.00
12769;DHT22;6448;48.916;8.990;2023-04-03T03:08:28;11.70;45.90
12769;DHT22;6448;48.916;8.990;2023-04-03T03:09:29;11.70;45.90
12769;DHT22;6448;48.916;8.990;2023-04-03T03:10:32;11.70;45.90
12769;DHT22;6448;48.916;8.990;2023-04-03T03:11:33;11.70;45.70
12769;DHT22;6448;48.916;8.990;2023-04-03T03:12:37;11.70;45.70
12769;DHT22;6448;48.916;8.990;2023-04-03T03:13:37;11.70;45.70
12769;DHT22;6448;48.916;8.990;2023-04-03T03:14:39;11.70;45.60
12769;DHT22;6448;48.916;8.990;2023-04-03T03:15:41;11.70;45.60
12769;DHT22;6448;48.916;8.990;2023-04-03T03:16:42;11.70;45.60
12769;DHT22;6448;48.916;8.990;2023-04-03T03:17:43;11.70;45.50
12769;DHT22;6448;48.916;8.990;2023-04-03T03:18:45;11.70;45.50
12769;DHT22;6448;48.916;8.990;2023-04-03T03:19:46;11.70;45.50
12769;DHT22;6448;48.916;8.990;2023-04-03T03:20:52;11.70;45.50
12769;DHT22;6448;48.916;8.990;2023-04-03T03:21:53;11.70;45.40
12769;DHT22;6448;48.916;8.990;2023-04-03T03:22:56;11.70;45.30
12769;DHT22;6448;48.916;8.990;2023-04-03T03:23:57;11.70;45.20
12769;DHT22;6448;48.916;8.990;2023-04-03T03:24:59;11.70;45.20
12769;DHT22;6448;48.916;8.990;2023-04-03T03:26:03;11.70;45.20
12769;DHT22;6448;48.916;8.990;2023-04-03T03:27:05;11.70;45.20
12769;DHT22;6448;48.916;8.990;2023-04-03T03:28:06;11.70;45.10
12769;DHT22;6448;48.916;8.990;2023-04-03T03:29:08;11.70;45.10
12769;DHT22;6448;48.916;8.990;2023-04-03T03:30:10;11.70;45.10
12769;DHT22;6448;48.916;8.990;2023-04-03T03:31:11;11.70;45.00
12769;DHT22;6448;48.916;8.990;2023-04-03T03:32:14;11.70;45.00
12769;DHT22;6448;48.916;8.990;2023-04-03T03:33:16;11.70;45.00
12769;DHT22;6448;48.916;8.990;2023-04-03T03:34:17;11.60;44.90
12769;DHT22;6448;48.916;8.990;2023-04-03T03:35:19;11.70;44.80
12769;DHT22;6448;48.916;8.990;2023-04-03T03:36:23;11.70;44.80
12769;DHT22;6448;48.916;8.990;2023-04-03T03:37:25;11.70;44.80
12769;DHT22;6448;48.916;8.990;2023-04-03T03:38:27;11.60;44.80
12769;DHT22;6448;48.916;8.990;2023-04-03T03:39:28;11.70;44.80
12769;DHT22;6448;48.916;8.990;2023-04-03T03:40:31;11.60;44.80
12769;DHT22;6448;48.916;8.990;2023-04-03T03:41:32;11.70;44.80
12769;DHT22;6448;48.916;8.990;2023-04-03T03:42:34;11.60;44.80
12769;DHT22;6448;48.916;8.990;2023-04-03T03:43:36;11.60;44.80
12769;DHT22;6448;48.916;8.990;2023-04-03T03:44:40;11.60;44.90
12769;DHT22;6448;48.916;8.990;2023-04-03T03:45:41;11.60;44.80
12769;DHT22;6448;48.916;8.990;2023-04-03T03:46:42;11.60;44.80
12769;DHT22;6448;48.916;8.990;2023-04-03T03:47:43;11.60;44.80
12769;DHT22;6448;48.916;8.990;2023-04-03T03:48:46;11.60;44.80
12769;DHT22;6448;48.916;8.990;2023-04-03T03:49:46;11.60;44.90
12769;DHT22;6448;48.916;8.990;2023-04-03T03:50:50;11.60;45.00
12769;DHT22;6448;48.916;8.990;2023-04-03T03:51:53;11.60;45.10
12769;DHT22;6448;48.916;8.990;2023-04-03T03:52:55;11.60;45.10
12769;DHT22;6448;48.916;8.990;2023-04-03T03:53:56;11.60;45.10
12769;DHT22;6448;48.916;8.990;2023-04-03T03:54:58;11.60;45.20
12769;DHT22;6448;48.916;8.990;2023-04-03T03:55:59;11.60;45.20
12769;DHT22;6448;48.916;8.990;2023-04-03T03:57:03;11.60;45.20
12769;DHT22;6448;48.916;8.990;2023-04-03T03:58:05;11.60;45.20
12769;DHT22;6448;48.916;8.990;2023-04-03T03:59:08;11.60;45.30
12769;DHT22;6448;48.916;8.990;2023-04-03T04:00:09;11.60;45.20
12769;DHT22;6448;48.916;8.990;2023-04-03T04:01:22;11.60;45.30
12769;DHT22;6448;48.916;8.990;2023-04-03T04:02:23;11.60;45.30
12769;DHT22;6448;48.916;8.990;2023-04-03T04:03:27;11.60;45.30
12769;DHT22;6448;48.916;8.990;2023-04-03T04:04:28;11.60;45.30
12769;DHT22;6448;48.916;8.990;2023-04-03T04:05:30;11.60;45.40
12769;DHT22;6448;48.916;8.990;2023-04-03T04:06:32;11.60;45.30
12769;DHT22;6448;48.916;8.990;2023-04-03T04:07:39;11.70;45.40
12769;DHT22;6448;48.916;8.990;2023-04-03T04:08:41;11.60;45.40
12769;DHT22;6448;48.916;8.990;2023-04-03T04:09:45;11.60;45.40
12769;DHT22;6448;48.916;8.990;2023-04-03T04:10:45;11.50;45.30
12769;DHT22;6448;48.916;8.990;2023-04-03T04:11:49;11.60;45.20
12769;DHT22;6448;48.916;8.990;2023-04-03T04:12:52;11.50;45.10
12769;DHT22;6448;48.916;8.990;2023-04-03T04:13:56;11.50;45.10
12769;DHT22;6448;48.916;8.990;2023-04-03T04:15:00;11.50;45.10
12769;DHT22;6448;48.916;8.990;2023-04-03T04:16:03;11.50;45.10
12769;DHT22;6448;48.916;8.990;2023-04-03T04:17:07;11.50;45.00
12769;DHT22;6448;48.916;8.990;2023-04-03T04:18:08;11.50;44.90
12769;DHT22;6448;48.916;8.990;2023-04-03T04:19:11;11.50;45.00
12769;DHT22;6448;48.916;8.990;2023-04-03T04:20:13;11.50;45.00
12769;DHT22;6448;48.916;8.990;2023-04-03T04:21:15;11.50;44.90
12769;DHT22;6448;48.916;8.990;2023-04-03T04:22:17;11.50;44.80
12769;DHT22;6448;48.916;8.990;2023-04-03T04:23:20;11.50;44.80
12769;DHT22;6448;48.916;8.990;2023-04-03T04:24:22;11.50;44.70
12769;DHT22;6448;48.916;8.990;2023-04-03T04:25:26;11.50;44.70
12769;DHT22;6448;48.916;8.990;2023-04-03T04:26:27;11.50;44.70
12769;DHT22;6448;48.916;8.990;2023-04-03T04:27:29;11.50;44.70
12769;DHT22;6448;48.916;8.990;2023-04-03T04:28:30;11.50;44.70
12769;DHT22;6448;48.916;8.990;2023-04-03T04:29:35;11.50;44.70
12769;DHT22;6448;48.916;8.990;2023-04-03T04:30:39;11.50;44.80
12769;DHT22;6448;48.916;8.990;2023-04-03T04:31:40;11.50;44.80
12769;DHT22;6448;48.916;8.990;2023-04-03T04:32:41;11.50;44.90
12769;DHT22;6448;48.916;8.990;2023-04-03T04:33:43;11.50;44.90
12769;DHT22;6448;48.916;8.990;2023-04-03T04:34:47;11.50;44.90
12769;DHT22;6448;48.916;8.990;2023-04-03T04:35:49;11.50;44.90
12769;DHT22;6448;48.916;8.990;2023-04-03T04:36:52;11.50;45.00
12769;DHT22;6448;48.916;8.990;2023-04-03T04:37:54;11.50;45.00
12769;DHT22;6448;48.916;8.990;2023-04-03T04:38:56;11.50;45.10
12769;DHT22;6448;48.916;8.990;2023-04-03T04:40:00;11.50;45.10
12769;DHT22;6448;48.916;8.990;2023-04-03T04:41:01;11.50;45.10
12769;DHT22;6448;48.916;8.990;2023-04-03T04:42:03;11.50;45.10
12769;DHT22;6448;48.916;8.990;2023-04-03T04:43:05;11.50;45.10
12769;DHT22;6448;48.916;8.990;2023-04-03T04:44:08;11.50;45.10
12769;DHT22;6448;48.916;8.990;2023-04-03T04:45:10;11.50;45.10
12769;DHT22;6448;48.916;8.990;2023-04-03T04:46:15;11.50;45.10
12769;DHT22;6448;48.916;8.990;2023-04-03T04:47:21;11.50;45.20
12769;DHT22;6448;48.916;8.990;2023-04-03T04:48:23;11.50;45.20
12769;DHT22;6448;48.916;8.990;2023-04-03T04:49:24;11.50;45.10
12769;DHT22;6448;48.916;8.990;2023-04-03T04:50:26;11.50;45.10
12769;DHT22;6448;48.916;8.990;2023-04-03T04:51:28;11.50;45.10
12769;DHT22;6448;48.916;8.990;2023-04-03T04:52:30;11.50;45.20
12769;DHT22;6448;48.916;8.990;2023-04-03T04:53:32;11.50;45.10
12769;DHT22;6448;48.916;8.990;2023-04-03T04:54:34;11.60;45.10
12769;DHT22;6448;48.916;8.990;2023-04-03T04:55:36;11.50;45.10
12769;DHT22;6448;48.916;8.990;2023-04-03T04:56:37;11.50;45.10
12769;DHT22;6448;48.916;8.990;2023-04-03T04:57:39;11.50;45.10
12769;DHT22;6448;48.916;8.990;2023-04-03T04:58:40;11.50;45.10
12769;DHT22;6448;48.916;8.990;2023-04-03T04:59:42;11.50;45.10
12769;DHT22;6448;48.916;8.990;2023-04-03T05:00:43;11.50;45.00
12769;DHT22;6448;48.916;8.990;2023-04-03T05:01:45;11.50;45.00
12769;DHT22;6448;48.916;8.990;2023-04-03T05:02:50;11.50;45.00
12769;DHT22;6448;48.916;8.990;2023-04-03T05:03:53;11.50;45.00
12769;DHT22;6448;48.916;8.990;2023-04-03T05:04:56;11.50;45.10
12769;DHT22;6448;48.916;8.990;2023-04-03T05:06:01;11.50;45.10
12769;DHT22;6448;48.916;8.990;2023-04-03T05:07:05;11.60;45.10
12769;DHT22;6448;48.916;8.990;2023-04-03T05:08:09;11.50;45.10
12769;DHT22;6448;48.916;8.990;2023-04-03T05:09:12;11.50;45.10
12769;DHT22;6448;48.916;8.990;2023-04-03T05:10:17;11.50;45.10
12769;DHT22;6448;48.916;8.990;2023-04-03T05:11:20;11.50;45.10
12769;DHT22;6448;48.916;8.990;2023-04-03T05:12:24;11.50;44.90
12769;DHT22;6448;48.916;8.990;2023-04-03T05:13:30;11.50;45.00
12769;DHT22;6448;48.916;8.990;2023-04-03T05:14:32;11.50;45.10
12769;DHT22;6448;48.916;8.990;2023-04-03T05:15:37;11.40;45.10
12769;DHT22;6448;48.916;8.990;2023-04-03T05:16:39;11.40;45.10
12769;DHT22;6448;48.916;8.990;2023-04-03T05:17:41;11.40;45.20
12769;DHT22;6448;48.916;8.990;2023-04-03T05:18:46;11.40;45.30
12769;DHT22;6448;48.916;8.990;2023-04-03T05:19:52;11.40;45.20
12769;DHT22;6448;48.916;8.990;2023-04-03T05:20:56;11.40;45.10
12769;DHT22;6448;48.916;8.990;2023-04-03T05:21:59;11.40;45.20
12769;DHT22;6448;48.916;8.990;2023-04-03T05:23:04;11.40;45.20
12769;DHT22;6448;48.916;8.990;2023-04-03T05:24:07;11.40;45.30
12769;DHT22;6448;48.916;8.990;2023-04-03T05:25:12;11.40;45.30
12769;DHT22;6448;48.916;8.990;2023-04-03T05:26:18;11.40;45.40
12769;DHT22;6448;48.916;8.990;2023-04-03T05:27:22;11.40;45.40
12769;DHT22;6448;48.916;8.990;2023-04-03T05:28:27;11.40;45.40
12769;DHT22;6448;48.916;8.990;2023-04-03T05:29:29;11.40;45.50
12769;DHT22;6448;48.916;8.990;2023-04-03T05:30:32;11.40;45.50
12769;DHT22;6448;48.916;8.990;2023-04-03T05:31:37;11.60;45.60
12769;DHT22;6448;48.916;8.990;2023-04-03T05:32:40;11.40;45.60
12769;DHT22;6448;48.916;8.990;2023-04-03T05:33:53;11.40;45.60
12769;DHT22;6448;48.916;8.990;2023-04-03T05:34:55;11.40;45.60
12769;DHT22;6448;48.916;8.990;2023-04-03T05:35:56;11.50;45.60
12769;DHT22;6448;48.916;8.990;2023-04-03T05:37:01;11.40;45.60
12769;DHT22;6448;48.916;8.990;2023-04-03T05:38:03;11.60;45.70
12769;DHT22;6448;48.916;8.990;2023-04-03T05:39:06;11.30;45.60
12769;DHT22;6448;48.916;8.990;2023-04-03T05:40:11;11.30;45.50
12769;DHT22;6448;48.916;8.990;2023-04-03T05:41:18;11.30;45.60
12769;DHT22;6448;48.916;8.990;2023-04-03T05:42:20;11.40;45.60
12769;DHT22;6448;48.916;8.990;2023-04-03T05:43:22;11.30;45.50
12769;DHT22;6448;48.916;8.990;2023-04-03T05:44:24;11.30;45.60
12769;DHT22;6448;48.916;8.990;2023-04-03T05:45:27;11.30;45.60
12769;DHT22;6448;48.916;8.990;2023-04-03T05:46:28;11.30;45.70
12769;DHT22;6448;48.916;8.990;2023-04-03T05:47:31;11.30;45.60
12769;DHT22;6448;48.916;8.990;2023-04-03T05:48:33;11.30;46.30
12769;DHT22;6448;48.916;8.990;2023-04-03T05:49:35;11.30;45.60
12769;DHT22;6448;48.916;8.990;2023-04-03T05:50:35;11.40;45.60
12769;DHT22;6448;48.916;8.990;2023-04-03T05:51:42;11.30;45.60
12769;DHT22;6448;48.916;8.990;2023-04-03T05:52:52;11.30;45.70
12769;DHT22;6448;48.916;8.990;2023-04-03T05:54:00;11.30;45.60
12769;DHT22;6448;48.916;8.990;2023-04-03T05:55:05;11.30;45.50
12769;DHT22;6448;48.916;8.990;2023-04-03T05:56:09;11.30;45.50
12769;DHT22;6448;48.916;8.990;2023-04-03T05:57:15;11.30;45.50
12769;DHT22;6448;48.916;8.990;2023-04-03T05:58:17;11.30;45.50
12769;DHT22;6448;48.916;8.990;2023-04-03T05:59:21;11.30;45.60
12769;DHT22;6448;48.916;8.990;2023-04-03T06:00:26;11.40;45.70
12769;DHT22;6448;48.916;8.990;2023-04-03T06:01:35;11.30;45.70
12769;DHT22;6448;48.916;8.990;2023-04-03T06:02:36;11.30;45.70
12769;DHT22;6448;48.916;8.990;2023-04-03T06:03:48;11.30;45.70
12769;DHT22;6448;48.916;8.990;2023-04-03T06:04:50;11.30;45.80
12769;DHT22;6448;48.916;8.990;2023-04-03T06:05:51;11.30;45.70
12769;DHT22;6448;48.916;8.990;2023-04-03T06:06:54;11.20;45.60
12769;DHT22;6448;48.916;8.990;2023-04-03T06:07:56;11.50;45.70
12769;DHT22;6448;48.916;8.990;2023-04-03T06:08:58;11.20;45.50
12769;DHT22;6448;48.916;8.990;2023-04-03T06:10:17;11.20;45.50
12769;DHT22;6448;48.916;8.990;2023-04-03T06:11:20;11.20;45.60
12769;DHT22;6448;48.916;8.990;2023-04-03T06:12:24;11.20;45.70
12769;DHT22;6448;48.916;8.990;2023-04-03T06:13:26;11.10;45.60
12769;DHT22;6448;48.916;8.990;2023-04-03T06:14:27;11.20;45.60
12769;DHT22;6448;48.916;8.990;2023-04-03T06:15:29;11.30;45.70
12769;DHT22;6448;48.916;8.990;2023-04-03T06:16:36;11.40;45.80
12769;DHT22;6448;48.916;8.990;2023-04-03T06:17:41;11.20;45.60
12769;DHT22;6448;48.916;8.990;2023-04-03T06:18:42;11.20;45.60
12769;DHT22;6448;48.916;8.990;2023-04-03T06:19:50;11.20;45.60
12769;DHT22;6448;48.916;8.990;2023-04-03T06:21:16;11.20;45.50
12769;DHT22;6448;48.916;8.990;2023-04-03T06:22:17;11.20;45.40
12769;DHT22;6448;48.916;8.990;2023-04-03T06:23:38;11.20;45.30
12769;DHT22;6448;48.916;8.990;2023-04-03T06:24:41;11.20;45.40
12769;DHT22;6448;48.916;8.990;2023-04-03T06:25:44;11.30;45.50
12769;DHT22;6448;48.916;8.990;2023-04-03T06:26:45;11.20;45.60
12769;DHT22;6448;48.916;8.990;2023-04-03T06:27:48;11.20;45.60
12769;DHT22;6448;48.916;8.990;2023-04-03T06:28:49;11.20;45.60
12769;DHT22;6448;48.916;8.990;2023-04-03T06:29:50;11.20;45.50
12769;DHT22;6448;48.916;8.990;2023-04-03T06:30:52;11.20;45.60
12769;DHT22;6448;48.916;8.990;2023-04-03T06:31:52;11.20;45.60
12769;DHT22;6448;48.916;8.990;2023-04-03T06:32:54;11.20;45.60
12769;DHT22;6448;48.916;8.990;2023-04-03T06:33:56;11.10;45.70
12769;DHT22;6448;48.916;8.990;2023-04-03T06:34:57;11.10;45.70
12769;DHT22;6448;48.916;8.990;2023-04-03T06:35:58;11.20;45.70
12769;DHT22;6448;48.916;8.990;2023-04-03T06:37:00;11.10;45.50
12769;DHT22;6448;48.916;8.990;2023-04-03T06:38:02;11.10;45.50
12769;DHT22;6448;48.916;8.990;2023-04-03T06:39:09;11.10;45.60
12769;DHT22;6448;48.916;8.990;2023-04-03T06:40:19;11.10;45.60
12769;DHT22;6448;48.916;8.990;2023-04-03T06:41:21;11.20;45.70
12769;DHT22;6448;48.916;8.990;2023-04-03T06:42:23;11.10;45.70
12769;DHT22;6448;48.916;8.990;2023-04-03T06:43:35;11.10;45.60
12769;DHT22;6448;48.916;8.990;2023-04-03T06:44:37;11.10;45.60
12769;DHT22;6448;48.916;8.990;2023-04-03T06:45:37;11.10;45.60